Time;durP1;ratioP1;P1;durP2;ratioP2;P2;SDS_P1;SDS_P2;PMS_P1;PMS_P2;Temp;Humidity;BMP_temperature;BMP_pressure;BME280_temperature;BME280_humidity;BME280_pressure;Samples;Min_cycle;Max_cycle;Signal;HPM_P1;HPM_P2
2021/03/10 00:01:01;;;;;;;12.43;10.00;;;3.20;99.90;;;;;;5053930;28;20795;-56
2021/03/10 00:03:29;;;;;;;15.43;9.77;;;3.10;99.90;;;;;;5054769;28;20464;-57
2021/03/10 00:05:57;;;;;;;13.20;9.30;;;3.00;99.90;;;;;;5054682;28;20437;-56
2021/03/10 00:08:24;;;;;;;16.80;9.67;;;3.10;99.90;;;;;;5053288;28;20517;-57
2021/03/10 00:10:51;;;;;;;15.60;9.20;;;3.10;99.90;;;;;;5053138;28;20799;-56
2021/03/10 00:13:19;;;;;;;12.73;9.83;;;3.30;99.90;;;;;;5053454;28;20529;-56
2021/03/10 00:15:46;;;;;;;14.63;10.37;;;3.40;99.90;;;;;;5052713;28;20496;-57
2021/03/10 00:18:14;;;;;;;12.27;9.50;;;3.30;99.90;;;;;;5053347;28;20544;-57
2021/03/10 00:20:42;;;;;;;18.87;9.57;;;3.10;99.90;;;;;;5053929;28;20774;-57
2021/03/10 00:23:10;;;;;;;16.97;9.83;;;3.00;99.90;;;;;;5056212;28;20488;-57
2021/03/10 00:25:37;;;;;;;13.73;9.57;;;3.00;99.90;;;;;;5060450;28;20595;-57
2021/03/10 00:28:04;;;;;;;12.57;9.70;;;3.10;99.90;;;;;;5054460;28;20453;-57
2021/03/10 00:30:32;;;;;;;14.83;9.40;;;3.20;99.90;;;;;;5053088;28;20450;-57
2021/03/10 00:32:59;;;;;;;11.00;9.60;;;3.10;99.90;;;;;;5053736;28;20449;-57
2021/03/10 00:35:29;;;;;;;13.63;9.97;;;3.00;99.90;;;;;;5053877;28;20496;-57
2021/03/10 00:37:59;;;;;;;14.67;9.67;;;3.00;99.90;;;;;;5052984;28;20554;-57
2021/03/10 00:40:26;;;;;;;15.00;9.90;;;3.00;99.90;;;;;;5052670;28;20438;-58
2021/03/10 00:42:54;;;;;;;16.63;11.20;;;3.20;99.90;;;;;;5052691;28;20431;-60
2021/03/10 00:45:21;;;;;;;13.63;10.30;;;3.20;99.90;;;;;;5051572;28;20430;-57
2021/03/10 00:47:48;;;;;;;12.73;9.50;;;3.20;99.90;;;;;;5052760;28;20449;-57
2021/03/10 00:50:19;;;;;;;13.07;9.23;;;3.20;99.90;;;;;;5052598;28;20442;-57
2021/03/10 00:52:46;;;;;;;16.20;10.60;;;3.20;99.90;;;;;;5052497;28;21011;-57
2021/03/10 00:55:15;;;;;;;12.30;8.43;;;3.40;99.90;;;;;;5052214;28;20461;-56
2021/03/10 00:57:42;;;;;;;16.00;10.63;;;3.30;99.90;;;;;;5052526;28;20462;-56
2021/03/10 01:00:11;;;;;;;12.90;9.90;;;3.00;99.90;;;;;;5052363;28;20451;-59
2021/03/10 01:02:39;;;;;;;13.83;10.43;;;3.10;99.90;;;;;;5052186;28;20469;-56
2021/03/10 01:05:08;;;;;;;10.20;8.30;;;2.90;99.90;;;;;;5052318;28;20434;-57
2021/03/10 01:07:35;;;;;;;18.60;11.00;;;2.80;99.90;;;;;;5052388;28;20442;-57
2021/03/10 01:10:05;;;;;;;23.07;10.90;;;3.00;99.90;;;;;;5052644;28;20430;-56
2021/03/10 01:12:34;;;;;;;15.23;11.17;;;3.00;99.90;;;;;;5052242;28;20442;-56
2021/03/10 01:15:01;;;;;;;17.17;10.50;;;2.80;99.90;;;;;;5052568;28;20934;-56
2021/03/10 01:17:28;;;;;;;15.10;10.37;;;2.90;99.90;;;;;;5051859;28;20481;-56
2021/03/10 01:19:56;;;;;;;15.40;10.70;;;2.90;99.90;;;;;;5052433;28;20470;-56
2021/03/10 01:22:23;;;;;;;18.47;11.23;;;2.80;99.90;;;;;;5052705;28;20438;-56
2021/03/10 01:24:50;;;;;;;16.57;11.40;;;2.80;99.90;;;;;;5052285;28;20440;-57
2021/03/10 01:27:17;;;;;;;16.97;10.77;;;2.90;99.90;;;;;;5052542;28;20437;-59
2021/03/10 01:29:46;;;;;;;14.30;10.43;;;3.00;99.90;;;;;;5052254;28;20485;-56
2021/03/10 01:32:14;;;;;;;14.83;11.00;;;3.10;99.90;;;;;;5054558;28;20527;-56
2021/03/10 01:34:42;;;;;;;13.07;10.13;;;3.10;99.90;;;;;;5056192;28;20446;-58
2021/03/10 01:37:09;;;;;;;15.93;10.57;;;3.20;99.90;;;;;;5055739;28;20630;-56
2021/03/10 01:39:36;;;;;;;13.87;10.93;;;3.20;99.90;;;;;;5056198;28;20503;-56
2021/03/10 01:42:04;;;;;;;15.13;10.23;;;3.20;99.90;;;;;;5055716;28;20438;-58
2021/03/10 01:44:32;;;;;;;16.93;10.60;;;3.20;99.90;;;;;;5056225;28;20434;-56
2021/03/10 01:47:01;;;;;;;15.27;11.30;;;3.20;99.90;;;;;;5054886;28;20466;-58
2021/03/10 01:49:29;;;;;;;16.70;10.80;;;2.90;99.90;;;;;;5055941;28;20429;-56
2021/03/10 01:51:56;;;;;;;15.07;12.37;;;2.90;99.90;;;;;;5056183;28;20813;-56
2021/03/10 01:54:25;;;;;;;19.60;11.50;;;2.90;99.90;;;;;;5055699;28;20798;-56
2021/03/10 01:56:52;;;;;;;16.57;12.00;;;2.90;99.90;;;;;;5055807;28;20940;-56
2021/03/10 01:59:24;;;;;;;20.50;12.43;;;2.90;99.90;;;;;;5055943;28;20759;-58
2021/03/10 02:01:54;;;;;;;14.73;10.17;;;2.90;99.90;;;;;;5054773;28;20485;-59
2021/03/10 02:04:23;;;;;;;18.57;11.83;;;2.90;99.90;;;;;;5055493;28;20439;-57
2021/03/10 02:07:21;;;;;;;18.03;12.07;;;3.00;99.90;;;;;;5055744;28;20451;-57
2021/03/10 02:10:00;;;;;;;16.10;10.57;;;3.20;99.90;;;;;;5055680;28;20525;-58
2021/03/10 02:12:34;;;;;;;19.43;11.47;;;3.00;99.90;;;;;;5055082;28;21056;-58
2021/03/10 02:15:08;;;;;;;16.90;12.00;;;3.00;99.90;;;;;;5055241;28;20426;-57
2021/03/10 02:17:37;;;;;;;17.83;12.53;;;3.00;99.90;;;;;;5034599;28;20496;-56
2021/03/10 02:20:30;;;;;;;16.83;12.10;;;3.00;99.90;;;;;;5050754;23;20858;-58
2021/03/10 02:23:27;;;;;;;15.40;11.43;;;2.90;99.90;;;;;;5039092;28;20442;-61
2021/03/10 02:26:08;;;;;;;14.90;10.73;;;2.80;99.90;;;;;;5039661;28;20470;-60
2021/03/10 02:28:39;;;;;;;17.80;11.60;;;2.80;99.90;;;;;;5040173;28;21016;-60
2021/03/10 02:31:08;;;;;;;18.90;13.47;;;2.80;99.90;;;;;;5030105;28;20484;-59
2021/03/10 02:33:38;;;;;;;16.77;13.77;;;2.70;99.90;;;;;;5018958;28;20501;-59
2021/03/10 02:36:08;;;;;;;18.83;12.67;;;2.80;99.90;;;;;;5016645;28;20882;-62
2021/03/10 02:38:40;;;;;;;18.77;12.57;;;2.70;99.90;;;;;;5015241;28;20443;-59
2021/03/10 02:41:08;;;;;;;19.17;11.83;;;2.70;99.90;;;;;;5015974;28;20439;-64
2021/03/10 02:43:37;;;;;;;17.03;12.10;;;2.80;99.90;;;;;;5016741;28;20432;-59
2021/03/10 02:46:06;;;;;;;18.90;13.87;;;2.80;99.90;;;;;;5015975;28;20479;-59
2021/03/10 02:48:36;;;;;;;16.80;11.80;;;2.80;99.90;;;;;;5016245;28;20597;-61
2021/03/10 02:51:04;;;;;;;24.93;13.00;;;2.80;99.90;;;;;;5016750;28;20444;-59
2021/03/10 02:53:33;;;;;;;16.67;12.67;;;2.80;99.90;;;;;;5016710;28;20508;-60
2021/03/10 02:56:01;;;;;;;19.20;11.87;;;2.90;99.90;;;;;;5016294;28;20985;-61
2021/03/10 02:58:28;;;;;;;16.97;11.53;;;2.90;99.90;;;;;;5016172;28;20435;-59
2021/03/10 03:00:56;;;;;;;20.27;12.70;;;3.00;99.90;;;;;;5015143;28;20472;-60
2021/03/10 03:03:24;;;;;;;19.90;12.30;;;3.10;99.90;;;;;;5015430;28;20438;-60
2021/03/10 03:05:51;;;;;;;15.43;13.10;;;3.40;99.90;;;;;;5015695;28;20453;-59
2021/03/10 03:08:25;;;;;;;20.70;15.00;;;3.60;99.90;;;;;;5015592;28;20531;-59
2021/03/10 03:10:53;;;;;;;18.40;14.20;;;3.60;99.90;;;;;;5016070;28;20432;-60
2021/03/10 03:13:22;;;;;;;22.93;14.43;;;3.60;99.90;;;;;;5016702;28;20444;-60
2021/03/10 03:15:53;;;;;;;21.03;14.37;;;3.70;99.90;;;;;;5016206;28;20487;-62
2021/03/10 03:18:22;;;;;;;22.00;13.43;;;3.80;99.90;;;;;;5017018;28;20447;-59
2021/03/10 03:20:50;;;;;;;18.53;12.73;;;3.90;99.90;;;;;;5014041;28;20488;-59
2021/03/10 03:23:19;;;;;;;19.87;14.30;;;3.90;99.90;;;;;;5015863;28;20440;-59
2021/03/10 03:25:46;;;;;;;19.77;12.83;;;3.80;99.90;;;;;;5015368;28;20475;-63
2021/03/10 03:28:17;;;;;;;20.90;15.63;;;3.80;99.90;;;;;;5015881;28;20468;-60
2021/03/10 03:30:45;;;;;;;21.20;14.80;;;3.80;99.90;;;;;;5014910;28;21042;-61
2021/03/10 03:33:14;;;;;;;22.70;15.10;;;3.80;99.90;;;;;;5015138;28;20440;-63
2021/03/10 03:35:44;;;;;;;19.50;14.67;;;3.80;99.90;;;;;;5014254;28;20443;-59
2021/03/10 03:38:11;;;;;;;23.13;14.60;;;3.80;99.90;;;;;;5015804;28;20535;-60
2021/03/10 03:40:39;;;;;;;23.03;16.03;;;3.60;99.90;;;;;;5015505;28;20446;-61
2021/03/10 03:43:08;;;;;;;28.30;16.67;;;3.50;99.90;;;;;;5015423;28;20436;-59
2021/03/10 03:45:36;;;;;;;22.80;14.53;;;3.40;99.90;;;;;;5014486;28;20472;-60
2021/03/10 03:48:05;;;;;;;22.63;14.80;;;3.30;99.90;;;;;;5015287;28;20558;-59
2021/03/10 03:50:33;;;;;;;24.10;15.10;;;3.40;99.90;;;;;;5015233;28;20436;-59
2021/03/10 03:53:01;;;;;;;23.10;15.73;;;3.30;99.90;;;;;;5014298;28;21013;-60
2021/03/10 03:55:28;;;;;;;19.20;13.93;;;3.30;99.90;;;;;;5015161;28;20438;-59
2021/03/10 03:57:55;;;;;;;22.30;14.63;;;3.20;99.90;;;;;;5015241;28;20470;-63
2021/03/10 04:00:26;;;;;;;26.77;14.50;;;3.10;99.90;;;;;;5014115;28;20471;-60
2021/03/10 04:02:53;;;;;;;22.60;14.87;;;3.10;99.90;;;;;;5015172;28;20780;-60
2021/03/10 04:05:22;;;;;;;27.50;16.50;;;3.20;99.90;;;;;;5015381;28;20455;-62
2021/03/10 04:08:09;;;;;;;27.80;16.40;;;3.10;99.90;;;;;;5014926;28;20986;-60
2021/03/10 04:10:39;;;;;;;27.63;16.53;;;3.20;99.90;;;;;;5015432;28;20447;-60
2021/03/10 04:13:07;;;;;;;25.43;15.33;;;3.30;99.90;;;;;;5013986;28;20531;-62
2021/03/10 04:15:35;;;;;;;23.80;16.70;;;3.30;99.90;;;;;;5015880;28;20476;-62
2021/03/10 04:18:04;;;;;;;33.27;16.50;;;3.40;99.90;;;;;;5014885;28;20987;-60
2021/03/10 04:20:32;;;;;;;20.60;14.60;;;3.50;99.90;;;;;;5013460;28;20990;-60
2021/03/10 04:23:00;;;;;;;29.23;17.50;;;3.60;99.90;;;;;;5015279;28;20523;-59
2021/03/10 04:25:28;;;;;;;27.40;18.00;;;3.60;99.90;;;;;;5015127;28;20833;-59
2021/03/10 04:27:55;;;;;;;27.17;17.23;;;3.60;99.90;;;;;;5015303;28;20559;-61
2021/03/10 04:30:23;;;;;;;23.20;16.33;;;3.70;99.90;;;;;;5013572;28;20518;-60
2021/03/10 04:32:51;;;;;;;25.67;16.50;;;3.70;99.90;;;;;;5014750;28;20491;-60
2021/03/10 04:35:19;;;;;;;30.67;17.60;;;3.60;99.90;;;;;;5015875;28;20444;-60
2021/03/10 04:37:47;;;;;;;27.80;19.17;;;3.60;99.90;;;;;;5016194;28;20444;-59
2021/03/10 04:40:15;;;;;;;25.80;17.80;;;3.50;99.90;;;;;;5014995;28;20468;-59
2021/03/10 04:42:43;;;;;;;29.07;17.97;;;3.50;99.90;;;;;;5016588;28;20471;-59
2021/03/10 04:45:12;;;;;;;30.60;17.37;;;3.50;99.90;;;;;;5017674;28;20523;-59
2021/03/10 04:47:41;;;;;;;25.53;18.63;;;3.50;99.90;;;;;;5015914;28;20480;-59
2021/03/10 04:50:10;;;;;;;27.30;17.43;;;3.50;99.90;;;;;;5018165;28;20437;-59
2021/03/10 04:52:38;;;;;;;27.00;16.73;;;3.50;99.90;;;;;;5017762;28;20436;-59
2021/03/10 04:55:06;;;;;;;29.60;19.03;;;3.50;99.90;;;;;;5017000;28;20440;-59
2021/03/10 04:57:34;;;;;;;27.70;18.43;;;3.50;99.90;;;;;;5014815;28;20443;-62
2021/03/10 05:00:03;;;;;;;27.67;18.50;;;3.50;99.90;;;;;;5014214;28;20424;-59
2021/03/10 05:02:31;;;;;;;26.93;16.30;;;3.50;99.90;;;;;;5015365;28;21077;-59
2021/03/10 05:04:58;;;;;;;27.57;18.53;;;3.50;99.90;;;;;;5017916;28;20440;-59
2021/03/10 05:07:26;;;;;;;30.63;18.17;;;3.50;99.90;;;;;;5021121;28;20977;-59
2021/03/10 05:09:58;;;;;;;24.83;18.33;;;3.50;99.90;;;;;;5023556;28;20478;-62
2021/03/10 05:12:29;;;;;;;26.57;18.60;;;3.50;99.90;;;;;;5023871;28;20447;-59
2021/03/10 05:14:57;;;;;;;28.03;16.10;;;3.50;99.90;;;;;;5021091;28;20498;-59
2021/03/10 05:17:25;;;;;;;28.70;18.73;;;3.50;99.90;;;;;;5020614;28;20475;-59
2021/03/10 05:19:53;;;;;;;26.07;16.67;;;3.50;99.90;;;;;;5019821;28;20464;-59
2021/03/10 05:22:20;;;;;;;30.10;19.10;;;3.50;99.90;;;;;;5019043;28;20493;-60
2021/03/10 05:24:47;;;;;;;28.37;17.83;;;3.50;99.90;;;;;;5018028;28;20440;-60
2021/03/10 05:27:15;;;;;;;29.13;17.57;;;3.50;99.90;;;;;;5018934;28;20985;-59
2021/03/10 05:29:42;;;;;;;25.33;16.57;;;3.60;99.90;;;;;;5029001;28;20524;-59
2021/03/10 05:32:10;;;;;;;27.23;18.17;;;3.60;99.90;;;;;;5024750;28;20495;-59
2021/03/10 05:34:39;;;;;;;27.37;18.17;;;3.60;99.90;;;;;;5017748;28;20452;-60
2021/03/10 05:37:11;;;;;;;24.50;17.77;;;3.60;99.90;;;;;;5018297;28;20842;-61
2021/03/10 05:39:39;;;;;;;27.80;18.67;;;3.70;99.90;;;;;;5017904;28;20500;-60
2021/03/10 05:42:06;;;;;;;29.73;18.63;;;3.70;99.90;;;;;;5016690;28;20482;-59
2021/03/10 05:44:34;;;;;;;28.60;20.40;;;3.60;99.90;;;;;;5018002;28;20482;-60
2021/03/10 05:47:01;;;;;;;31.60;20.63;;;3.60;99.90;;;;;;5016517;28;20991;-61
2021/03/10 05:49:29;;;;;;;29.23;18.67;;;3.50;99.90;;;;;;5018236;28;20435;-59
2021/03/10 05:51:58;;;;;;;28.37;17.27;;;3.40;99.90;;;;;;5021841;28;20439;-59
2021/03/10 05:54:29;;;;;;;27.73;19.90;;;3.40;99.90;;;;;;5020080;28;20432;-59
2021/03/10 05:56:57;;;;;;;27.33;17.50;;;3.40;99.90;;;;;;5020731;28;20459;-59
2021/03/10 05:59:27;;;;;;;28.47;18.83;;;3.40;99.90;;;;;;5020000;28;20463;-59
2021/03/10 06:01:54;;;;;;;32.27;19.53;;;3.50;99.90;;;;;;5019995;28;20539;-60
2021/03/10 06:04:24;;;;;;;29.37;19.10;;;3.50;99.90;;;;;;5020062;28;20440;-60
2021/03/10 06:07:20;;;;;;;29.00;20.43;;;3.50;99.90;;;;;;5020292;28;20541;-60
2021/03/10 06:10:01;;;;;;;28.33;18.80;;;3.50;99.90;;;;;;5019561;28;20472;-60
2021/03/10 06:12:39;;;;;;;30.37;17.47;;;3.70;99.90;;;;;;5019140;28;20460;-62
2021/03/10 06:15:09;;;;;;;28.07;17.47;;;3.70;99.90;;;;;;5019429;28;20439;-59
2021/03/10 06:17:46;;;;;;;34.93;18.87;;;3.80;99.90;;;;;;5019908;28;20472;-59
2021/03/10 06:20:31;;;;;;;26.90;18.80;;;3.70;99.90;;;;;;5019395;28;20482;-61
2021/03/10 06:23:00;;;;;;;31.83;17.83;;;3.70;99.90;;;;;;5019705;28;20794;-60
2021/03/10 06:25:36;;;;;;;29.70;18.83;;;3.70;99.90;;;;;;5019523;28;20447;-59
2021/03/10 06:30:56;;;;;;;29.27;18.77;;;3.80;99.90;;;;;;5017589;28;20479;-60
2021/03/10 06:33:24;;;;;;;29.27;19.20;;;3.90;99.90;;;;;;5019096;28;20436;-60
2021/03/10 06:35:51;;;;;;;27.43;17.83;;;4.00;99.90;;;;;;5018345;28;20837;-60
2021/03/10 06:38:20;;;;;;;32.83;20.20;;;4.10;99.90;;;;;;5021813;28;20448;-60
2021/03/10 06:40:49;;;;;;;28.93;18.10;;;4.00;99.90;;;;;;5023449;28;20539;-60
2021/03/10 06:43:16;;;;;;;31.70;21.70;;;4.10;99.90;;;;;;5025344;28;20467;-60
2021/03/10 06:45:43;;;;;;;31.57;20.33;;;4.10;99.90;;;;;;5022775;28;20472;-59
2021/03/10 06:48:22;;;;;;;29.13;18.50;;;4.10;99.90;;;;;;5017247;28;20510;-61
2021/03/10 06:50:49;;;;;;;30.33;19.30;;;4.20;99.90;;;;;;5016942;28;20436;-60
2021/03/10 06:53:17;;;;;;;29.97;18.17;;;4.20;99.90;;;;;;5016991;28;20429;-59
2021/03/10 06:55:46;;;;;;;31.73;20.27;;;4.20;99.90;;;;;;5017454;28;20444;-60
2021/03/10 06:58:24;;;;;;;27.73;17.30;;;4.30;99.90;;;;;;5018440;28;20438;-62
2021/03/10 07:01:00;;;;;;;31.77;20.37;;;4.40;99.90;;;;;;5017808;28;20475;-59
2021/03/10 07:03:29;;;;;;;31.67;19.27;;;4.30;99.90;;;;;;5018880;28;20531;-59
2021/03/10 07:05:58;;;;;;;30.03;18.20;;;4.40;99.90;;;;;;5018320;28;20531;-59
2021/03/10 07:08:28;;;;;;;26.10;17.13;;;4.40;99.90;;;;;;5018039;28;20487;-59
2021/03/10 07:10:56;;;;;;;25.23;17.00;;;4.50;99.90;;;;;;5016794;28;20470;-60
2021/03/10 07:13:24;;;;;;;30.20;17.50;;;4.40;99.90;;;;;;5018274;28;20920;-59
2021/03/10 07:15:52;;;;;;;31.73;18.90;;;4.50;99.90;;;;;;5017904;28;20472;-59
2021/03/10 07:18:20;;;;;;;27.57;17.10;;;4.60;99.90;;;;;;5018353;28;20444;-59
2021/03/10 07:20:48;;;;;;;29.73;18.93;;;4.60;99.90;;;;;;5018700;28;20538;-59
2021/03/10 07:23:19;;;;;;;28.70;18.20;;;4.70;99.90;;;;;;5018122;28;20467;-59
2021/03/10 07:25:47;;;;;;;27.57;17.40;;;4.80;99.90;;;;;;5017837;28;20424;-59
2021/03/10 07:28:18;;;;;;;27.03;18.83;;;4.80;99.90;;;;;;5018888;28;20476;-62
2021/03/10 07:30:48;;;;;;;32.73;18.53;;;4.90;99.90;;;;;;5015438;28;20468;-59
2021/03/10 07:33:18;;;;;;;28.13;18.40;;;4.90;99.90;;;;;;5018137;28;20789;-59
2021/03/10 07:35:49;;;;;;;31.53;20.30;;;4.90;99.90;;;;;;5017399;28;20452;-61
2021/03/10 07:38:17;;;;;;;33.77;18.10;;;5.00;99.90;;;;;;5016148;28;20796;-58
2021/03/10 07:40:58;;;;;;;29.00;19.30;;;5.00;99.90;;;;;;5017493;28;20535;-59
2021/03/10 07:43:36;;;;;;;32.63;19.30;;;4.90;99.90;;;;;;5016632;28;20436;-59
2021/03/10 07:46:05;;;;;;;32.90;19.03;;;4.90;99.90;;;;;;5014666;28;20467;-61
2021/03/10 07:48:34;;;;;;;28.97;16.00;;;5.00;99.90;;;;;;5018244;28;20463;-59
2021/03/10 07:51:02;;;;;;;34.23;18.77;;;4.90;99.90;;;;;;5017190;28;20527;-59
2021/03/10 07:53:36;;;;;;;35.90;22.60;;;4.80;99.90;;;;;;5017757;28;20439;-59
2021/03/10 07:56:04;;;;;;;30.40;19.37;;;4.80;99.90;;;;;;5016996;28;20956;-62
2021/03/10 07:58:32;;;;;;;27.67;16.93;;;4.80;99.90;;;;;;5018287;28;20848;-60
2021/03/10 08:01:00;;;;;;;29.23;18.90;;;4.90;99.90;;;;;;5017552;28;20529;-60
2021/03/10 08:03:30;;;;;;;33.60;22.38;;;5.00;99.90;;;;;;5016410;28;20859;-61
2021/03/10 08:06:04;;;;;;;34.83;19.13;;;5.10;99.90;;;;;;5014989;28;20186;-63
2021/03/10 08:08:36;;;;;;;29.67;20.17;;;5.20;99.90;;;;;;5016022;28;20464;-61
2021/03/10 08:11:14;;;;;;;30.87;19.60;;;5.30;99.90;;;;;;5015200;28;20444;-60
2021/03/10 08:13:42;;;;;;;31.80;18.50;;;5.30;99.90;;;;;;5013701;28;21010;-60
2021/03/10 08:16:12;;;;;;;30.53;20.07;;;5.30;99.90;;;;;;5014649;28;20446;-64
2021/03/10 08:18:46;;;;;;;34.73;18.17;;;5.50;99.90;;;;;;5014505;28;20468;-60
2021/03/10 08:21:16;;;;;;;29.97;19.10;;;5.40;99.90;;;;;;5014734;28;20575;-59
2021/03/10 08:23:44;;;;;;;31.67;17.27;;;5.50;99.90;;;;;;5016888;28;20432;-62
2021/03/10 08:26:11;;;;;;;38.17;21.37;;;5.50;99.90;;;;;;5017381;28;20428;-59
2021/03/10 08:28:40;;;;;;;30.93;17.67;;;5.40;99.90;;;;;;5016617;28;20472;-62
2021/03/10 08:31:42;;;;;;;33.37;18.97;;;5.50;99.90;;;;;;5016154;28;20472;-64
2021/03/10 08:34:11;;;;;;;33.53;19.60;;;5.40;99.90;;;;;;5014607;28;20436;-61
2021/03/10 08:36:39;;;;;;;32.63;19.00;;;5.40;99.90;;;;;;5013227;28;20962;-60
2021/03/10 08:39:13;;;;;;;34.63;20.27;;;5.40;99.90;;;;;;5013947;28;20436;-60
2021/03/10 08:41:46;;;;;;;32.13;20.17;;;5.60;99.90;;;;;;5014469;28;20424;-62
2021/03/10 08:44:14;;;;;;;30.97;20.57;;;5.80;99.90;;;;;;5014333;28;20405;-60
2021/03/10 08:46:43;;;;;;;32.63;19.73;;;6.00;99.90;;;;;;5011838;28;20545;-60
2021/03/10 08:49:25;;;;;;;32.90;17.80;;;5.90;99.90;;;;;;5012491;28;20494;-60
2021/03/10 08:52:10;;;;;;;28.90;19.00;;;6.00;99.90;;;;;;5014391;28;20450;-60
2021/03/10 08:54:52;;;;;;;35.63;19.87;;;6.00;99.90;;;;;;5012426;28;20781;-59
2021/03/10 08:57:21;;;;;;;34.80;20.20;;;6.00;99.90;;;;;;5012704;28;20467;-59
2021/03/10 08:59:48;;;;;;;36.77;19.97;;;6.10;99.90;;;;;;5012846;28;20445;-59
2021/03/10 09:02:25;;;;;;;31.13;19.27;;;6.30;99.90;;;;;;5013984;28;20473;-59
2021/03/10 09:04:53;;;;;;;31.13;19.93;;;6.40;99.90;;;;;;5014162;28;20453;-59
2021/03/10 09:07:24;;;;;;;30.57;17.30;;;6.10;99.90;;;;;;5014783;28;20421;-61
2021/03/10 09:10:18;;;;;;;34.80;20.30;;;6.60;99.90;;;;;;4997402;28;20422;-60
2021/03/10 09:12:52;;;;;;;27.80;19.23;;;7.00;99.90;;;;;;5012501;28;20528;-60
2021/03/10 09:15:24;;;;;;;28.47;17.70;;;7.60;99.90;;;;;;5011645;28;20433;-60
2021/03/10 09:18:03;;;;;;;27.33;16.53;;;8.10;99.90;;;;;;5012247;28;20444;-60
2021/03/10 09:20:36;;;;;;;26.30;14.77;;;8.60;99.90;;;;;;5012227;28;20878;-60
2021/03/10 09:23:10;;;;;;;28.17;17.80;;;8.70;99.90;;;;;;5013170;28;20421;-62
2021/03/10 09:25:42;;;;;;;33.27;20.10;;;8.70;99.90;;;;;;5014356;28;20423;-59
2021/03/10 09:28:21;;;;;;;24.90;16.13;;;8.90;99.90;;;;;;5012459;28;20461;-59
2021/03/10 09:31:16;;;;;;;27.57;17.40;;;8.60;99.90;;;;;;5013184;28;20450;-62
2021/03/10 09:33:58;;;;;;;29.40;18.30;;;8.50;99.90;;;;;;5013806;28;20448;-59
2021/03/10 09:36:29;;;;;;;26.40;15.90;;;7.90;99.90;;;;;;4996096;28;20403;-59
2021/03/10 09:39:08;;;;;;;26.80;16.00;;;8.40;99.90;;;;;;5012392;28;20472;-60
2021/03/10 09:41:48;;;;;;;31.93;18.57;;;8.80;99.90;;;;;;5013782;28;20414;-62
2021/03/10 09:44:40;;;;;;;26.83;17.30;;;8.50;99.90;;;;;;5012930;28;20531;-62
2021/03/10 09:47:13;;;;;;;30.60;17.23;;;8.40;99.90;;;;;;5012537;28;20454;-59
2021/03/10 09:49:47;;;;;;;29.93;16.77;;;8.30;99.90;;;;;;5012570;28;20487;-60
2021/03/10 09:52:15;;;;;;;27.37;17.70;;;8.90;99.90;;;;;;5014440;28;20431;-60
2021/03/10 09:54:54;;;;;;;22.70;14.53;;;9.50;99.90;;;;;;5020091;28;20426;-63
2021/03/10 09:57:28;;;;;;;27.10;17.90;;;9.10;99.90;;;;;;5018752;28;20423;-60
2021/03/10 09:59:58;;;;;;;23.37;15.53;;;8.80;99.90;;;;;;5016923;28;20410;-60
2021/03/10 10:02:27;;;;;;;30.30;14.83;;;9.10;99.90;;;;;;5015050;28;20956;-59
2021/03/10 10:05:04;;;;;;;21.73;13.43;;;9.30;99.90;;;;;;5015600;28;20457;-59
2021/03/10 10:07:33;;;;;;;27.13;14.80;;;9.60;99.60;;;;;;5016866;28;20413;-59
2021/03/10 10:10:05;;;;;;;19.63;13.63;;;9.30;99.30;;;;;;5016590;28;20478;-59
2021/03/10 10:12:54;;;;;;;22.77;14.60;;;9.20;99.40;;;;;;5015552;28;20405;-59
2021/03/10 10:15:33;;;;;;;23.23;15.80;;;9.30;99.40;;;;;;5014982;28;20457;-62
2021/03/10 10:18:05;;;;;;;20.50;14.60;;;9.20;99.70;;;;;;5015151;28;20447;-59
2021/03/10 10:20:38;;;;;;;25.87;14.80;;;9.30;99.90;;;;;;5015477;28;20482;-60
2021/03/10 10:23:10;;;;;;;22.70;13.57;;;8.70;99.90;;;;;;5015452;28;20410;-60
2021/03/10 10:25:48;;;;;;;25.47;15.50;;;9.40;99.60;;;;;;5014979;28;20424;-63
2021/03/10 10:28:15;;;;;;;22.70;14.63;;;9.50;99.40;;;;;;5015722;28;20451;-60
2021/03/10 10:30:43;;;;;;;24.30;13.53;;;9.90;98.60;;;;;;5010917;28;20479;-60
2021/03/10 10:33:10;;;;;;;23.20;13.43;;;9.80;98.20;;;;;;4995883;28;20429;-61
2021/03/10 10:35:47;;;;;;;22.20;14.57;;;10.40;96.50;;;;;;4997443;28;20443;-62
2021/03/10 10:38:15;;;;;;;19.10;12.43;;;10.60;94.90;;;;;;4995652;28;20516;-60
2021/03/10 10:40:43;;;;;;;21.90;14.63;;;10.00;95.10;;;;;;4997351;28;20429;-59
2021/03/10 10:43:14;;;;;;;22.10;13.43;;;9.70;97.00;;;;;;4997304;28;20440;-60
2021/03/10 10:45:45;;;;;;;20.53;13.60;;;9.90;96.70;;;;;;4998497;28;20553;-60
2021/03/10 10:48:15;;;;;;;18.63;12.03;;;10.20;95.90;;;;;;5014418;28;20491;-59
2021/03/10 10:50:56;;;;;;;15.10;11.03;;;10.60;94.20;;;;;;4998754;28;20547;-60
2021/03/10 10:53:29;;;;;;;18.53;10.93;;;10.90;94.00;;;;;;5015132;28;20427;-61
2021/03/10 10:55:57;;;;;;;16.23;10.07;;;10.10;92.40;;;;;;5014857;28;20436;-60
2021/03/10 10:58:24;;;;;;;15.97;9.83;;;9.60;93.90;;;;;;5014859;28;20467;-62
2021/03/10 11:00:52;;;;;;;13.87;9.30;;;9.30;94.40;;;;;;5013002;28;20555;-59
2021/03/10 11:03:22;;;;;;;10.83;8.90;;;9.00;94.30;;;;;;5016127;28;20439;-59
2021/03/10 11:06:16;;;;;;;16.67;10.37;;;8.70;94.80;;;;;;5014801;28;20920;-60
2021/03/10 11:08:46;;;;;;;19.13;10.37;;;8.50;95.10;;;;;;5015409;28;20478;-62
2021/03/10 11:11:14;;;;;;;16.73;10.67;;;8.40;95.50;;;;;;5014387;28;20515;-60
2021/03/10 11:13:48;;;;;;;18.63;9.80;;;8.60;95.60;;;;;;5014225;28;20415;-59
2021/03/10 11:16:26;;;;;;;19.00;10.30;;;8.80;95.40;;;;;;5009787;28;20488;-60
2021/03/10 11:19:14;;;;;;;16.43;11.00;;;9.20;94.80;;;;;;4994399;28;20542;-60
2021/03/10 11:21:45;;;;;;;15.97;11.03;;;9.60;94.40;;;;;;4994565;28;20527;-59
2021/03/10 11:24:16;;;;;;;13.07;8.97;;;9.70;93.70;;;;;;4994478;28;20430;-59
2021/03/10 11:26:45;;;;;;;13.20;8.87;;;9.60;93.60;;;;;;4994541;28;20423;-59
2021/03/10 11:29:17;;;;;;;17.97;10.60;;;9.60;93.30;;;;;;4994202;28;20440;-59
2021/03/10 11:31:45;;;;;;;13.63;8.10;;;9.50;92.50;;;;;;5006523;28;20909;-59
2021/03/10 11:34:15;;;;;;;15.27;9.77;;;9.80;92.90;;;;;;5014195;28;20407;-59
2021/03/10 11:36:46;;;;;;;14.93;9.97;;;10.10;90.90;;;;;;5015684;28;20440;-59
2021/03/10 11:39:15;;;;;;;11.83;8.70;;;10.70;90.50;;;;;;5014600;28;20456;-59
2021/03/10 11:41:42;;;;;;;12.23;8.77;;;11.90;83.90;;;;;;5015341;28;20437;-58
2021/03/10 11:44:09;;;;;;;8.87;7.27;;;11.70;81.60;;;;;;5015851;28;20792;-59
2021/03/10 11:46:37;;;;;;;10.60;7.13;;;10.80;81.70;;;;;;5015594;28;20467;-59
2021/03/10 11:49:04;;;;;;;11.87;7.47;;;10.00;83.60;;;;;;5017028;28;20818;-59
2021/03/10 11:51:32;;;;;;;12.00;8.80;;;9.40;86.80;;;;;;5016947;28;20440;-59
2021/03/10 11:54:00;;;;;;;9.40;7.03;;;8.90;89.00;;;;;;5014716;28;20413;-60
2021/03/10 11:56:28;;;;;;;11.80;8.03;;;8.70;90.10;;;;;;5015957;28;20437;-59
2021/03/10 11:58:56;;;;;;;12.40;8.03;;;8.30;90.70;;;;;;4998030;28;20410;-60
2021/03/10 12:01:47;;;;;;;10.37;7.07;;;8.10;91.50;;;;;;4997849;28;20453;-62
2021/03/10 12:04:17;;;;;;;10.00;6.80;;;8.10;91.70;;;;;;5016343;28;20495;-62
2021/03/10 12:06:51;;;;;;;11.77;8.97;;;8.00;91.90;;;;;;5014618;28;20530;-62
2021/03/10 12:09:19;;;;;;;10.80;8.13;;;8.00;92.30;;;;;;5015872;28;21009;-59
2021/03/10 12:11:47;;;;;;;12.53;7.43;;;8.20;92.10;;;;;;5015664;28;20407;-59
2021/03/10 12:14:23;;;;;;;10.40;6.97;;;8.60;92.00;;;;;;5015255;28;20443;-59
2021/03/10 12:16:51;;;;;;;11.30;8.00;;;9.00;91.40;;;;;;5014065;28;20457;-62
2021/03/10 12:19:18;;;;;;;12.30;7.77;;;9.40;90.40;;;;;;5014709;28;20440;-60
2021/03/10 12:21:46;;;;;;;10.87;7.47;;;10.00;88.40;;;;;;5014693;28;20559;-60
2021/03/10 12:24:13;;;;;;;10.07;7.53;;;10.30;87.10;;;;;;5014347;28;20443;-61
2021/03/10 12:26:42;;;;;;;13.30;8.03;;;11.00;85.10;;;;;;5014342;28;20441;-59
2021/03/10 12:29:10;;;;;;;11.77;8.27;;;10.80;83.90;;;;;;5013697;28;20438;-60
2021/03/10 12:31:38;;;;;;;12.23;7.83;;;11.70;81.20;;;;;;5013220;28;20470;-59
2021/03/10 12:34:08;;;;;;;12.30;8.10;;;11.20;80.40;;;;;;5014292;28;20430;-58
2021/03/10 12:36:37;;;;;;;11.30;7.07;;;10.50;81.60;;;;;;5014792;28;20483;-59
2021/03/10 12:39:06;;;;;;;11.03;7.87;;;9.80;83.30;;;;;;5014048;28;20450;-59
2021/03/10 12:41:34;;;;;;;11.87;9.23;;;9.40;85.80;;;;;;5014345;28;20423;-59
2021/03/10 12:44:03;;;;;;;11.85;9.27;;;8.90;88.10;;;;;;5013244;28;20423;-59
2021/03/10 12:46:31;;;;;;;12.17;8.23;;;8.60;89.20;;;;;;5013722;28;20275;-59
2021/03/10 12:48:59;;;;;;;14.20;8.90;;;8.50;90.10;;;;;;5013948;28;20512;-59
2021/03/10 12:51:27;;;;;;;13.97;8.60;;;8.60;90.00;;;;;;5013171;28;20432;-59
2021/03/10 12:53:54;;;;;;;13.23;7.87;;;8.60;90.10;;;;;;5015401;28;20442;-59
2021/03/10 12:56:22;;;;;;;9.70;7.67;;;8.70;90.50;;;;;;5015322;28;20955;-62
2021/03/10 12:59:15;;;;;;;13.07;9.70;;;8.90;90.10;;;;;;5014738;28;20422;-60